createdAt,value
2019-04-25T00:02:15.851Z,1.67
2019-04-25T00:04:44.697Z,2.00
2019-04-25T00:07:13.545Z,1.70
2019-04-25T00:09:44.084Z,1.62
2019-04-25T00:12:13.089Z,1.80
2019-04-25T00:14:42.528Z,1.75
2019-04-25T00:17:11.460Z,1.70
2019-04-25T00:19:42.182Z,1.55
2019-04-25T00:22:12.513Z,1.65
2019-04-25T00:24:59.208Z,1.60
2019-04-25T00:27:28.053Z,1.62
2019-04-25T00:29:58.752Z,1.52
2019-04-25T00:32:27.584Z,1.80
2019-04-25T00:34:56.621Z,1.67
2019-04-25T00:37:25.380Z,1.70
2019-04-25T00:39:54.225Z,1.80
2019-04-25T00:42:23.268Z,1.60
2019-04-25T00:44:52.502Z,2.00
2019-04-25T00:47:21.664Z,1.90
2019-04-25T00:49:52.101Z,1.85
2019-04-25T00:52:21.154Z,1.80
2019-04-25T00:54:52.596Z,1.98
2019-04-25T00:57:22.284Z,1.90
2019-04-25T00:59:53.168Z,2.08
2019-04-25T01:02:24.497Z,1.90
2019-04-25T01:04:54.179Z,2.20
2019-04-25T01:07:23.028Z,2.20
2019-04-25T01:09:52.508Z,2.00
2019-04-25T01:12:22.664Z,2.10
2019-04-25T01:14:52.836Z,1.90
2019-04-25T01:17:22.951Z,2.55
2019-04-25T01:19:54.721Z,2.10
2019-04-25T01:22:23.233Z,2.10
2019-04-25T01:24:53.859Z,2.20
2019-04-25T01:27:23.451Z,1.92
2019-04-25T01:29:54.110Z,2.40
2019-04-25T01:32:24.389Z,2.20
2019-04-25T01:34:58.518Z,2.30
2019-04-25T01:37:43.713Z,2.20
2019-04-25T01:40:23.606Z,2.20
2019-04-25T01:42:59.890Z,2.30
2019-04-25T01:45:30.293Z,2.00
2019-04-25T01:47:59.025Z,2.20
2019-04-25T01:50:27.886Z,2.12
2019-04-25T01:52:56.787Z,2.30
2019-04-25T01:55:25.613Z,2.05
2019-04-25T01:57:55.072Z,2.00
2019-04-25T02:00:35.656Z,2.10
2019-04-25T02:03:05.572Z,2.40
2019-04-25T02:05:34.353Z,2.40
2019-04-25T02:08:05.789Z,2.33
2019-04-25T02:10:34.446Z,2.70
2019-04-25T02:13:07.840Z,2.52
2019-04-25T02:15:36.872Z,2.62
2019-04-25T02:18:05.669Z,2.85
2019-04-25T02:20:34.440Z,2.77
2019-04-25T02:23:04.179Z,2.52
2019-04-25T02:25:33.299Z,2.52
2019-04-25T02:28:03.148Z,2.77
2019-04-25T02:30:35.296Z,2.70
2019-04-25T02:33:08.794Z,2.70
2019-04-25T02:35:34.960Z,2.22
2019-04-25T02:38:08.289Z,2.50
2019-04-25T02:40:34.420Z,2.75
2019-04-25T02:43:07.574Z,2.60
2019-04-25T02:45:35.242Z,2.52
2019-04-25T02:48:24.114Z,2.40
2019-04-25T02:51:01.240Z,2.70
2019-04-25T02:53:37.791Z,2.70
2019-04-25T02:56:26.230Z,2.80
2019-04-25T02:58:36.929Z,2.33
2019-04-25T03:01:18.469Z,2.62
2019-04-25T03:03:38.742Z,2.80
2019-04-25T03:06:09.562Z,3.10
2019-04-25T03:08:37.955Z,2.75
2019-04-25T03:11:08.077Z,2.70
2019-04-25T03:13:37.420Z,2.87
2019-04-25T03:16:09.098Z,3.00
2019-04-25T03:18:47.176Z,2.92
2019-04-25T03:21:20.582Z,2.75
2019-04-25T03:23:50.012Z,3.52
2019-04-25T03:26:18.745Z,3.50
2019-04-25T03:28:47.509Z,3.60
2019-04-25T03:31:22.688Z,3.60
2019-04-25T03:33:46.728Z,3.02
2019-04-25T03:36:16.958Z,3.30
2019-04-25T03:38:46.028Z,3.25
2019-04-25T03:41:14.832Z,3.22
2019-04-25T03:43:44.516Z,3.80
2019-04-25T03:46:14.274Z,3.20
2019-04-25T03:48:44.113Z,3.27
2019-04-25T03:51:15.370Z,3.58
2019-04-25T03:53:43.976Z,3.20
2019-04-25T03:56:14.497Z,2.80
2019-04-25T03:58:43.919Z,2.33
2019-04-25T04:01:14.990Z,2.50
2019-04-25T04:03:43.971Z,2.67
2019-04-25T04:06:14.593Z,3.00
2019-04-25T04:08:44.296Z,2.70
2019-04-25T04:11:14.558Z,2.75
2019-04-25T04:13:44.151Z,2.47
2019-04-25T04:16:15.623Z,2.70
2019-04-25T04:18:46.046Z,3.10
2019-04-25T04:21:23.521Z,2.80
2019-04-25T04:23:54.488Z,2.50
2019-04-25T04:26:24.626Z,2.45
2019-04-25T04:28:53.412Z,2.50
2019-04-25T04:31:23.479Z,2.80
2019-04-25T04:33:53.090Z,2.58
2019-04-25T04:36:21.989Z,3.10
2019-04-25T04:38:50.781Z,2.98
2019-04-25T04:41:19.487Z,2.65
2019-04-25T04:43:48.302Z,2.90
2019-04-25T04:46:18.531Z,3.95
2019-04-25T04:48:47.444Z,3.67
2019-04-25T04:51:16.953Z,3.35
2019-04-25T04:53:45.761Z,3.92
2019-04-25T04:56:15.599Z,3.55
2019-04-25T04:58:45.171Z,3.17
2019-04-25T05:01:15.868Z,3.15
2019-04-25T05:03:54.024Z,3.17
2019-04-25T05:06:30.265Z,3.10
2019-04-25T05:09:09.881Z,2.90
2019-04-25T05:11:38.617Z,2.65
2019-04-25T05:14:07.377Z,3.20
2019-04-25T05:16:36.161Z,2.40
2019-04-25T05:19:05.136Z,2.60
2019-04-25T05:21:33.893Z,2.30
2019-04-25T05:24:04.139Z,2.20
2019-04-25T05:26:34.116Z,2.30
2019-04-25T05:29:04.653Z,2.22
2019-04-25T05:31:35.064Z,2.30
2019-04-25T05:34:03.868Z,2.60
2019-04-25T05:36:38.862Z,2.08
2019-04-25T05:39:09.762Z,3.72
2019-04-25T05:41:40.460Z,2.50
2019-04-25T05:44:09.280Z,2.65
2019-04-25T05:46:38.117Z,2.35
2019-04-25T05:49:08.310Z,2.72
2019-04-25T05:51:38.782Z,2.20
2019-04-25T05:54:08.958Z,2.45
2019-04-25T05:56:40.517Z,2.40
2019-04-25T05:59:09.412Z,2.40
2019-04-25T06:01:38.939Z,2.72
2019-04-25T06:04:08.592Z,2.10
2019-04-25T06:06:38.449Z,3.08
2019-04-25T06:09:15.693Z,2.20
2019-04-25T06:11:50.073Z,2.45
2019-04-25T06:14:21.803Z,2.40
2019-04-25T06:16:53.638Z,2.72
2019-04-25T06:19:39.343Z,2.37
2019-04-25T06:22:09.769Z,2.10
2019-04-25T06:24:44.309Z,2.25
2019-04-25T06:27:15.073Z,2.20
2019-04-25T06:29:57.327Z,2.30
2019-04-25T06:32:16.701Z,2.00
2019-04-25T06:34:47.696Z,2.10
2019-04-25T06:37:17.697Z,2.15
2019-04-25T06:39:48.428Z,2.30
2019-04-25T06:42:24.585Z,2.05
2019-04-25T06:44:55.242Z,2.00
2019-04-25T06:47:49.197Z,2.30
2019-04-25T06:50:23.075Z,2.08
2019-04-25T06:52:56.153Z,2.00
2019-04-25T06:55:37.663Z,2.00
2019-04-25T06:58:12.084Z,1.95
2019-04-25T07:00:41.310Z,2.83
2019-04-25T07:03:09.881Z,2.22
2019-04-25T07:05:40.544Z,2.50
2019-04-25T07:08:10.285Z,2.42
2019-04-25T07:10:39.037Z,2.17
2019-04-25T07:13:14.259Z,3.22
2019-04-25T07:15:44.028Z,3.33
2019-04-25T07:18:14.004Z,3.08
2019-04-25T07:20:53.273Z,2.67
2019-04-25T07:23:21.378Z,3.33
2019-04-25T07:25:55.299Z,3.50
2019-04-25T07:28:29.762Z,3.35
2019-04-25T07:31:10.520Z,3.70
2019-04-25T07:33:50.185Z,4.12
2019-04-25T07:36:20.347Z,3.42
2019-04-25T07:39:03.298Z,3.35
2019-04-25T07:41:30.287Z,3.35
2019-04-25T07:44:01.135Z,3.40
2019-04-25T07:46:29.957Z,3.02
2019-04-25T07:49:03.370Z,3.40
2019-04-25T07:51:35.557Z,3.90
2019-04-25T07:54:05.123Z,3.70
2019-04-25T07:56:35.234Z,2.90
2019-04-25T07:59:06.197Z,3.47
2019-04-25T08:01:37.482Z,3.67
2019-04-25T08:04:06.322Z,3.25
2019-04-25T08:06:35.756Z,3.58
2019-04-25T08:09:11.312Z,3.45
2019-04-25T08:11:40.610Z,3.37
2019-04-25T08:14:24.168Z,3.37
2019-04-25T08:16:57.752Z,3.72
2019-04-25T08:19:26.688Z,3.55
2019-04-25T08:21:56.856Z,3.50
2019-04-25T08:24:25.576Z,3.52
2019-04-25T08:27:01.223Z,3.98
2019-04-25T08:29:41.223Z,3.47
2019-04-25T08:32:25.356Z,3.42
2019-04-25T08:34:55.955Z,3.02
2019-04-25T08:37:24.798Z,3.47
2019-04-25T08:39:53.870Z,2.70
2019-04-25T08:42:24.159Z,3.58
2019-04-25T08:45:17.791Z,3.45
2019-04-25T08:47:46.269Z,3.95
2019-04-25T08:50:26.896Z,4.05
2019-04-25T08:53:07.696Z,3.37
2019-04-25T08:55:41.732Z,3.72
2019-04-25T08:58:34.480Z,2.83
2019-04-25T09:01:10.725Z,3.55
2019-04-25T09:04:03.565Z,3.98
2019-04-25T09:06:33.304Z,3.77
2019-04-25T09:09:03.757Z,3.98
2019-04-25T09:11:34.834Z,4.35
2019-04-25T09:14:03.702Z,5.00
2019-04-25T09:16:34.514Z,5.85
2019-04-25T09:19:04.603Z,5.05
2019-04-25T09:21:34.648Z,8.03
2019-04-25T09:24:04.085Z,4.47
2019-04-25T09:26:35.032Z,4.72
2019-04-25T09:29:16.809Z,5.15
2019-04-25T09:31:40.185Z,4.47
2019-04-25T09:34:10.753Z,3.90
2019-04-25T09:36:39.949Z,4.20
2019-04-25T09:39:13.801Z,4.47
2019-04-25T09:41:44.155Z,4.30
2019-04-25T09:44:14.940Z,4.65
2019-04-25T09:46:46.523Z,4.60
2019-04-25T09:49:15.829Z,4.53
2019-04-25T09:51:53.478Z,3.73
2019-04-25T09:54:26.697Z,3.83
2019-04-25T09:56:59.798Z,4.03
2019-04-25T09:59:30.134Z,3.98
2019-04-25T10:01:59.072Z,4.42
2019-04-25T10:04:27.825Z,4.70
2019-04-25T10:06:56.652Z,4.70
2019-04-25T10:09:25.959Z,4.28
2019-04-25T10:11:55.544Z,4.37
2019-04-25T10:14:54.278Z,4.03
2019-04-25T10:17:23.755Z,4.57
2019-04-25T10:19:52.541Z,4.33
2019-04-25T10:22:21.372Z,3.53
2019-04-25T10:24:59.051Z,3.95
2019-04-25T10:27:20.599Z,3.90
2019-04-25T10:29:53.599Z,3.75
2019-04-25T10:32:19.749Z,3.47
2019-04-25T10:34:49.018Z,2.55
2019-04-25T10:37:17.919Z,2.33
2019-04-25T10:39:46.650Z,2.45
2019-04-25T10:42:15.818Z,2.65
2019-04-25T10:44:46.119Z,2.00
2019-04-25T10:47:15.091Z,2.10
2019-04-25T10:49:44.957Z,2.15
2019-04-25T10:52:15.666Z,2.27
2019-04-25T10:54:45.781Z,2.98
2019-04-25T10:57:15.501Z,2.85
2019-04-25T10:59:57.885Z,2.50
2019-04-25T11:02:15.297Z,2.80
2019-04-25T11:04:48.245Z,2.80
2019-04-25T11:07:16.212Z,2.20
2019-04-25T11:09:45.567Z,2.37
2019-04-25T11:12:15.969Z,6.33
2019-04-25T11:14:44.737Z,10.82
2019-04-25T11:17:15.476Z,3.37
2019-04-25T11:19:44.582Z,3.12
2019-04-25T11:22:15.496Z,2.00
2019-04-25T11:24:43.956Z,2.10
2019-04-25T11:27:13.529Z,2.50
2019-04-25T11:29:43.189Z,2.20
2019-04-25T11:32:13.599Z,1.70
2019-04-25T11:34:46.069Z,2.12
2019-04-25T11:37:14.707Z,1.80
2019-04-25T11:40:00.586Z,1.73
2019-04-25T11:42:29.414Z,1.80
2019-04-25T11:44:58.209Z,2.45
2019-04-25T11:47:27.314Z,1.52
2019-04-25T11:49:56.148Z,1.90
2019-04-25T11:52:29.531Z,1.82
2019-04-25T11:54:55.790Z,1.82
2019-04-25T11:57:24.633Z,1.70
2019-04-25T11:59:54.609Z,1.70
2019-04-25T12:02:25.040Z,1.55
2019-04-25T12:04:54.985Z,1.52
2019-04-25T12:07:24.081Z,1.22
2019-04-25T12:09:54.531Z,1.70
2019-04-25T12:12:23.694Z,1.52
2019-04-25T12:14:54.007Z,1.67
2019-04-25T12:17:23.437Z,1.50
2019-04-25T12:19:54.600Z,1.53
2019-04-25T12:22:23.838Z,1.90
2019-04-25T12:24:54.337Z,1.42
2019-04-25T12:27:23.130Z,1.40
2019-04-25T12:29:52.433Z,1.57
2019-04-25T12:32:21.670Z,1.60
2019-04-25T12:34:51.542Z,1.57
2019-04-25T12:37:20.441Z,2.15
2019-04-25T12:39:49.178Z,1.98
2019-04-25T12:42:18.025Z,1.70
2019-04-25T12:44:51.368Z,1.60
2019-04-25T12:47:30.869Z,1.90
2019-04-25T12:49:59.713Z,2.20
2019-04-25T12:52:28.477Z,1.67
2019-04-25T12:54:58.168Z,1.80
2019-04-25T12:57:28.614Z,1.70
2019-04-25T12:59:57.622Z,1.70
2019-04-25T13:02:26.676Z,1.90
2019-04-25T13:04:55.580Z,1.50
2019-04-25T13:07:24.353Z,1.60
2019-04-25T13:09:53.712Z,1.90
2019-04-25T13:12:23.393Z,1.98
2019-04-25T13:14:52.657Z,1.75
2019-04-25T13:17:21.464Z,1.85
2019-04-25T13:19:50.263Z,1.50
2019-04-25T13:22:19.564Z,1.77
2019-04-25T13:24:48.382Z,1.55
2019-04-25T13:27:24.765Z,1.30
2019-04-25T13:29:58.775Z,1.47
2019-04-25T13:32:41.445Z,1.60
2019-04-25T13:35:13.550Z,1.52
2019-04-25T13:37:43.918Z,1.55
2019-04-25T13:40:13.221Z,1.77
2019-04-25T13:42:43.192Z,1.72
2019-04-25T13:45:14.314Z,1.75
2019-04-25T13:47:43.309Z,1.85
2019-04-25T13:50:14.474Z,1.70
2019-04-25T13:52:43.359Z,1.75
2019-04-25T13:55:13.603Z,1.95
2019-04-25T13:57:42.528Z,1.80
2019-04-25T14:00:11.688Z,1.42
2019-04-25T14:02:40.421Z,1.80
2019-04-25T14:05:09.251Z,1.60
2019-04-25T14:07:38.017Z,1.60
2019-04-25T14:10:07.080Z,1.70
2019-04-25T14:12:35.904Z,1.50
2019-04-25T14:15:07.100Z,1.90
2019-04-25T14:17:38.186Z,1.70
2019-04-25T14:20:26.403Z,1.75
2019-04-25T14:22:55.324Z,1.63
2019-04-25T14:25:26.907Z,1.67
2019-04-25T14:27:55.189Z,1.65
2019-04-25T14:30:26.247Z,5.30
2019-04-25T14:32:55.121Z,1.85
2019-04-25T14:35:24.204Z,2.80
2019-04-25T14:37:53.934Z,2.00
2019-04-25T14:40:24.709Z,2.17
2019-04-25T14:42:53.389Z,1.50
2019-04-25T14:45:22.629Z,1.85
2019-04-25T14:47:51.469Z,2.00
2019-04-25T14:50:20.452Z,1.60
2019-04-25T14:52:49.232Z,2.00
2019-04-25T14:55:36.184Z,1.80
2019-04-25T14:58:06.584Z,1.80
2019-04-25T15:00:42.940Z,1.80
2019-04-25T15:04:18.836Z,1.98
2019-04-25T15:06:47.680Z,2.75
2019-04-25T15:09:16.681Z,1.92
2019-04-25T15:11:45.521Z,2.55
2019-04-25T15:14:14.254Z,3.37
2019-04-25T15:16:43.116Z,2.00
2019-04-25T15:19:11.921Z,1.70
2019-04-25T15:21:40.760Z,1.85
2019-04-25T15:24:09.896Z,1.87
2019-04-25T15:26:40.341Z,2.20
2019-04-25T15:29:14.005Z,2.40
2019-04-25T15:31:55.231Z,2.10
2019-04-25T15:34:25.965Z,2.37
2019-04-25T15:37:15.768Z,2.05
2019-04-25T15:39:56.554Z,1.82
2019-04-25T15:42:35.113Z,2.02
2019-04-25T15:45:09.476Z,2.00
2019-04-25T15:47:38.316Z,2.17
2019-04-25T15:50:07.220Z,1.82
2019-04-25T15:52:36.083Z,1.85
2019-04-25T15:55:07.522Z,1.80
2019-04-25T15:57:36.307Z,2.45
2019-04-25T16:00:08.097Z,1.83
2019-04-25T16:02:41.152Z,7.17
2019-04-25T16:05:14.087Z,4.20
2019-04-25T16:07:44.781Z,2.30
2019-04-25T16:10:15.857Z,2.13
2019-04-25T16:12:46.194Z,2.67
2019-04-25T16:15:16.220Z,1.80
2019-04-25T16:17:45.045Z,3.10
2019-04-25T16:20:14.082Z,2.10
2019-04-25T16:22:50.375Z,2.33
2019-04-25T16:25:23.178Z,2.30
2019-04-25T16:27:51.871Z,6.87
2019-04-25T16:30:22.620Z,4.58
2019-04-25T16:32:51.365Z,3.83
2019-04-25T16:35:25.982Z,2.40
2019-04-25T16:37:55.868Z,2.50
2019-04-25T16:40:24.996Z,2.65
2019-04-25T16:42:55.158Z,2.62
2019-04-25T16:45:25.736Z,2.77
2019-04-25T16:47:59.100Z,2.25
2019-04-25T16:50:29.014Z,3.17
2019-04-25T16:52:58.968Z,3.55
2019-04-25T16:55:27.905Z,8.38
2019-04-25T16:57:56.633Z,3.17
2019-04-25T17:00:45.098Z,3.42
2019-04-25T17:03:14.793Z,2.70
2019-04-25T17:05:43.826Z,2.87
2019-04-25T17:08:12.944Z,2.75
2019-04-25T17:10:41.734Z,2.87
2019-04-25T17:13:18.337Z,2.80
2019-04-25T17:15:58.819Z,2.72
2019-04-25T17:18:40.248Z,3.40
2019-04-25T17:21:26.701Z,3.58
2019-04-25T17:23:55.484Z,4.22
2019-04-25T17:26:24.932Z,3.10
2019-04-25T17:28:57.238Z,3.42
2019-04-25T17:31:32.428Z,3.33
2019-04-25T17:34:20.743Z,3.52
2019-04-25T17:36:52.001Z,3.45
2019-04-25T17:39:42.126Z,3.72
2019-04-25T17:42:16.251Z,3.80
2019-04-25T17:44:45.085Z,3.72
2019-04-25T17:47:13.926Z,4.28
2019-04-25T17:49:42.661Z,4.22
2019-04-25T17:52:11.537Z,4.17
2019-04-25T17:54:44.953Z,4.27
2019-04-25T17:57:24.919Z,4.50
2019-04-25T17:59:53.621Z,4.00
2019-04-25T18:02:26.257Z,4.90
2019-04-25T18:04:54.984Z,4.80
2019-04-25T18:07:24.238Z,4.45
2019-04-25T18:09:54.658Z,4.60
2019-04-25T18:12:23.578Z,4.37
2019-04-25T18:14:58.261Z,4.35
2019-04-25T18:17:33.921Z,4.37
2019-04-25T18:20:20.846Z,4.73
2019-04-25T18:22:58.541Z,4.72
2019-04-25T18:25:52.395Z,5.40
2019-04-25T18:28:29.657Z,5.45
2019-04-25T18:30:59.596Z,5.27
2019-04-25T18:33:28.952Z,5.20
2019-04-25T18:36:12.253Z,5.20
2019-04-25T18:39:00.845Z,5.15
2019-04-25T18:41:43.896Z,5.67
2019-04-25T18:44:14.029Z,4.05
2019-04-25T18:46:47.302Z,4.67
2019-04-25T18:49:21.801Z,5.45
2019-04-25T18:51:58.110Z,5.70
2019-04-25T18:57:22.781Z,5.75
2019-04-25T18:59:53.788Z,5.50
2019-04-25T19:02:31.082Z,5.10
2019-04-25T19:05:09.422Z,4.85
2019-04-25T19:07:44.059Z,5.22
2019-04-25T19:10:15.808Z,5.70
2019-04-25T19:12:45.741Z,5.40
2019-04-25T19:15:18.071Z,6.28
2019-04-25T19:17:50.103Z,5.72
2019-04-25T19:20:21.069Z,5.72
2019-04-25T19:22:52.646Z,5.37
2019-04-25T19:25:25.987Z,4.65
2019-04-25T19:28:05.070Z,6.33
2019-04-25T19:30:33.869Z,5.50
2019-04-25T19:33:09.316Z,4.50
2019-04-25T19:35:39.529Z,5.35
2019-04-25T19:38:09.178Z,4.90
2019-04-25T19:40:44.013Z,5.87
2019-04-25T19:43:20.452Z,6.75
2019-04-25T19:46:05.779Z,5.85
2019-04-25T19:48:34.457Z,4.75
2019-04-25T19:51:03.539Z,5.58
2019-04-25T19:53:45.889Z,5.92
2019-04-25T19:56:18.052Z,7.47
2019-04-25T19:58:48.617Z,4.90
2019-04-25T20:01:17.853Z,6.13
2019-04-25T20:03:55.457Z,6.67
2019-04-25T20:06:51.560Z,7.35
2019-04-25T20:09:37.770Z,7.07
2019-04-25T20:12:07.425Z,6.85
2019-04-25T20:14:36.189Z,6.58
2019-04-25T20:17:06.906Z,5.10
2019-04-25T20:19:41.119Z,5.65
2019-04-25T20:22:15.664Z,6.08
2019-04-25T20:24:48.671Z,5.90
2019-04-25T20:27:21.503Z,5.57
2019-04-25T20:29:52.621Z,5.55
2019-04-25T20:32:35.394Z,5.22
2019-04-25T20:35:13.318Z,6.10
2019-04-25T20:40:25.128Z,4.05
2019-04-25T20:42:56.232Z,5.23
2019-04-25T20:45:39.177Z,4.75
2019-04-25T20:48:10.608Z,4.10
2019-04-25T20:50:44.962Z,4.83
2019-04-25T20:53:16.477Z,5.62
2019-04-25T20:55:48.756Z,5.40
2019-04-25T20:58:24.865Z,4.37
2019-04-25T21:00:55.928Z,5.00
2019-04-25T21:03:24.702Z,4.45
2019-04-25T21:05:58.189Z,4.45
2019-04-25T21:08:26.973Z,4.05
2019-04-25T21:10:55.857Z,4.45
2019-04-25T21:13:36.088Z,3.62
2019-04-25T21:16:06.479Z,3.72
2019-04-25T21:18:39.961Z,3.37
2019-04-25T21:21:08.733Z,3.42
2019-04-25T21:23:37.464Z,3.98
2019-04-25T21:26:06.391Z,3.25
2019-04-25T21:28:35.209Z,3.40
2019-04-25T21:31:04.088Z,4.37
2019-04-25T21:33:32.896Z,3.90
2019-04-25T21:36:02.061Z,4.08
2019-04-25T21:38:31.260Z,3.50
2019-04-25T21:41:04.767Z,4.03
2019-04-25T21:43:35.337Z,3.77
2019-04-25T21:46:04.513Z,3.65
2019-04-25T21:48:33.655Z,5.15
2019-04-25T21:51:04.358Z,5.70
2019-04-25T21:53:33.089Z,5.28
2019-04-25T21:56:02.217Z,5.30
2019-04-25T21:58:30.944Z,4.47
2019-04-25T22:01:02.383Z,3.87
2019-04-25T22:03:32.215Z,5.00
2019-04-25T22:06:01.157Z,4.53
2019-04-25T22:08:29.965Z,5.67
2019-04-25T22:10:59.920Z,4.20
2019-04-25T22:13:30.353Z,6.05
2019-04-25T22:15:59.691Z,5.92
2019-04-25T22:18:28.825Z,4.60
2019-04-25T22:20:58.292Z,5.87
2019-04-25T22:23:27.221Z,5.08
2019-04-25T22:25:56.297Z,4.90
2019-04-25T22:28:25.502Z,6.08
2019-04-25T22:30:57.713Z,6.00
2019-04-25T22:33:44.785Z,5.97
2019-04-25T22:36:21.533Z,7.00
2019-04-25T22:39:08.687Z,6.33
2019-04-25T22:41:49.144Z,5.95
2019-04-25T22:44:19.760Z,4.85
2019-04-25T22:46:48.901Z,4.15
2019-04-25T22:49:17.625Z,3.65
2019-04-25T22:51:46.424Z,3.60
2019-04-25T22:54:15.560Z,3.90
2019-04-25T22:56:44.293Z,4.70
2019-04-25T22:59:13.357Z,4.40
2019-04-25T23:01:53.035Z,3.95
2019-04-25T23:04:23.431Z,3.52
2019-04-25T23:06:52.242Z,3.02
2019-04-25T23:09:21.080Z,2.67
2019-04-25T23:11:50.112Z,2.98
2019-04-25T23:14:19.368Z,3.27
2019-04-25T23:16:48.204Z,3.90
2019-04-25T23:19:16.968Z,3.83
2019-04-25T23:21:46.056Z,3.93
2019-04-25T23:24:16.494Z,3.15
2019-04-25T23:27:06.287Z,3.00
2019-04-25T23:29:35.192Z,2.98
2019-04-25T23:32:04.057Z,3.90
2019-04-25T23:34:33.185Z,3.37
2019-04-25T23:37:02.025Z,3.57
2019-04-25T23:39:31.089Z,4.53
2019-04-25T23:41:59.824Z,4.85
2019-04-25T23:44:28.588Z,4.80
2019-04-25T23:46:57.616Z,3.80
2019-04-25T23:49:26.384Z,3.47
2019-04-25T23:51:55.489Z,3.72
2019-04-25T23:54:24.248Z,3.65
2019-04-25T23:56:52.977Z,3.70
2019-04-25T23:59:21.745Z,3.47
